Time;durP1;ratioP1;P1;durP2;ratioP2;P2;SDS_P1;SDS_P2;PMS_P1;PMS_P2;Temp;Humidity;BMP_temperature;BMP_pressure;BME280_temperature;BME280_humidity;BME280_pressure;Samples;Min_cycle;Max_cycle;Signal;HPM_P1;HPM_P2
2022/04/14 00:02:16;;;;;;;;;16.00;14.00;;;;;-147.47;100.00;64613.53;5068212;28;28618;-80
2022/04/14 00:04:45;;;;;;;;;14.67;12.00;;;;;-147.47;100.00;64613.53;5069648;28;28737;-80
2022/04/14 00:07:14;;;;;;;;;18.00;14.33;;;;;-147.47;100.00;64613.53;5051092;28;29968;-79
2022/04/14 00:09:42;;;;;;;;;12.33;12.33;;;;;-147.47;100.00;64613.53;5050700;28;29728;-77
2022/04/14 00:12:12;;;;;;;;;14.67;11.67;;;;;-147.47;100.00;64613.53;5050131;28;28819;-86
2022/04/14 00:14:37;;;;;;;;;15.00;12.33;;;;;-147.47;100.00;64613.53;5050831;28;28946;-86
2022/04/14 00:17:06;;;;;;;;;17.67;14.00;;;;;-147.47;100.00;64613.53;5051522;28;28579;-78
2022/04/14 00:19:32;;;;;;;;;20.00;14.33;;;;;-147.47;100.00;64613.53;5065695;28;28524;-79
2022/04/14 00:21:58;;;;;;;;;16.33;16.33;;;;;-147.47;100.00;64613.53;5070759;28;28493;-80
2022/04/14 00:24:32;;;;;;;;;17.67;16.00;;;;;-147.47;100.00;64613.53;5050590;28;29051;-84
2022/04/14 00:27:09;;;;;;;;;18.33;16.67;;;;;-147.47;100.00;64613.53;5063171;28;28306;-86
2022/04/14 00:30:01;;;;;;;;;12.33;11.00;;;;;-147.47;100.00;64613.53;5062352;28;28693;-86
2022/04/14 00:32:30;;;;;;;;;20.67;17.00;;;;;-147.47;100.00;64613.53;5050527;28;28345;-85
2022/04/14 00:35:01;;;;;;;;;19.00;15.33;;;;;-147.47;100.00;64613.53;5058032;28;28537;-87
2022/04/14 00:37:30;;;;;;;;;23.33;16.67;;;;;-147.47;100.00;64613.53;5063745;28;28806;-86
2022/04/14 00:39:56;;;;;;;;;16.67;15.67;;;;;-147.47;100.00;64613.53;5040936;28;29811;-86
2022/04/14 00:42:22;;;;;;;;;12.33;12.33;;;;;-147.47;100.00;64613.53;5064537;28;28522;-86
2022/04/14 00:44:48;;;;;;;;;21.67;15.67;;;;;-147.47;100.00;64613.53;5054489;28;29417;-86
2022/04/14 00:47:14;;;;;;;;;18.67;16.33;;;;;-147.47;100.00;64613.53;5066707;28;28564;-87
2022/04/14 00:49:43;;;;;;;;;28.67;25.00;;;;;-147.47;100.00;64613.53;5058284;28;28606;-84
2022/04/14 00:52:17;;;;;;;;;21.00;17.00;;;;;-147.47;100.00;64613.53;5061167;28;28245;-84
2022/04/14 00:54:43;;;;;;;;;21.00;18.33;;;;;-147.47;100.00;64613.53;5054834;28;28637;-83
2022/04/14 00:57:09;;;;;;;;;19.67;16.67;;;;;-147.47;100.00;64613.53;5055625;28;28817;-83
2022/04/14 00:59:35;;;;;;;;;24.00;17.33;;;;;-147.47;100.00;64613.53;5047381;28;30012;-84
2022/04/14 01:02:01;;;;;;;;;19.33;19.33;;;;;-147.47;100.00;64613.53;5079395;28;28482;-85
2022/04/14 01:04:27;;;;;;;;;14.33;14.33;;;;;-147.47;100.00;64613.53;5088781;28;27927;-85
2022/04/14 01:06:53;;;;;;;;;22.00;18.67;;;;;-147.47;100.00;64613.53;5075712;28;28578;-86
2022/04/14 01:09:26;;;;;;;;;31.67;24.00;;;;;-147.47;100.00;64613.53;5065465;28;28525;-84
2022/04/14 01:11:53;;;;;;;;;28.67;24.67;;;;;-147.47;100.00;64613.53;5055238;28;28108;-83
2022/04/14 01:14:28;;;;;;;;;27.33;23.00;;;;;-147.47;100.00;64613.53;5033656;28;28487;-81
2022/04/14 01:16:57;;;;;;;;;18.67;16.00;;;;;-147.47;100.00;64613.53;5050953;28;28741;-85
2022/04/14 01:19:23;;;;;;;;;24.00;24.00;;;;;-147.47;100.00;64613.53;5060107;28;28513;-84
2022/04/14 01:22:06;;;;;;;;;25.33;22.67;;;;;-147.47;100.00;64613.53;5052542;28;28501;-84
2022/04/14 01:24:41;;;;;;;;;23.00;23.00;;;;;-147.47;100.00;64613.53;5070789;28;28803;-85
2022/04/14 01:27:10;;;;;;;;;23.33;21.00;;;;;-147.47;100.00;64613.53;5071657;28;28486;-84
2022/04/14 01:29:56;;;;;;;;;22.33;21.33;;;;;-147.47;100.00;64613.53;5063077;28;29013;-84
2022/04/14 01:32:28;;;;;;;;;21.67;19.67;;;;;-147.47;100.00;64613.53;5053591;28;28579;-84
2022/04/14 01:35:14;;;;;;;;;20.67;19.67;;;;;-147.47;100.00;64613.53;5064811;28;28676;-84
2022/04/14 01:37:48;;;;;;;;;18.00;17.67;;;;;-147.47;100.00;64613.53;5047290;28;29679;-83
2022/04/14 01:40:57;;;;;;;;;25.00;23.33;;;;;-147.47;100.00;64613.53;5049901;28;28822;-84
2022/04/14 01:43:26;;;;;;;;;21.67;21.67;;;;;-147.47;100.00;64613.53;5032483;28;28974;-84
2022/04/14 01:46:03;;;;;;;;;28.00;21.00;;;;;-147.47;100.00;64613.53;5032772;28;29145;-84
2022/04/14 01:48:38;;;;;;;;;27.33;22.67;;;;;-147.47;100.00;64613.53;5074396;28;29909;-83
2022/04/14 01:51:16;;;;;;;;;20.00;18.00;;;;;-147.47;100.00;64613.53;5073283;28;28929;-84
2022/04/14 01:54:08;;;;;;;;;28.00;24.00;;;;;-147.47;100.00;64613.53;5074114;28;28148;-84
2022/04/14 01:56:46;;;;;;;;;27.67;22.33;;;;;-147.47;100.00;64613.53;5084575;28;28463;-86
2022/04/14 01:59:22;;;;;;;;;23.00;22.50;;;;;-147.47;100.00;64613.53;5042546;28;29873;-84
2022/04/14 02:01:48;;;;;;;;;30.67;23.33;;;;;-147.47;100.00;64613.53;5056352;28;28569;-85
2022/04/14 02:04:14;;;;;;;;;22.00;20.67;;;;;-147.47;100.00;64613.53;5053432;28;28462;-86
2022/04/14 02:06:41;;;;;;;;;21.00;18.50;;;;;-147.47;100.00;64613.53;5058290;28;28813;-86
2022/04/14 02:09:18;;;;;;;;;16.00;15.00;;;;;-147.47;100.00;64613.53;5074022;28;28294;-86
2022/04/14 02:12:11;;;;;;;;;22.67;17.33;;;;;-147.47;100.00;64613.53;5054475;28;28603;-84
2022/04/14 02:15:21;;;;;;;;;;;;;;;;;;;;;
2022/04/14 02:18:03;;;;;;;;;;;;;;;;;;;;;
2022/04/14 02:20:41;;;;;;;;;23.00;18.00;;;;;-147.47;100.00;64613.53;5055288;28;56432;-81
2022/04/14 02:23:24;;;;;;;;;18.67;17.33;;;;;-147.47;100.00;64613.53;5055619;28;28646;-85
2022/04/14 02:25:59;;;;;;;;;16.33;14.00;;;;;-147.47;100.00;64613.53;5058669;28;28255;-84
2022/04/14 02:28:29;;;;;;;;;19.00;16.00;;;;;-147.47;100.00;64613.53;5039804;28;28921;-82
2022/04/14 02:30:54;;;;;;;;;16.67;14.33;;;;;-147.47;100.00;64613.53;5040174;28;29842;-85
2022/04/14 02:33:20;;;;;;;;;17.33;15.00;;;;;-147.47;100.00;64613.53;5038402;28;28803;-84
2022/04/14 02:35:46;;;;;;;;;14.67;14.33;;;;;-147.47;100.00;64613.53;5059417;28;28384;-85
2022/04/14 02:38:13;;;;;;;;;16.33;16.33;;;;;-147.47;100.00;64613.53;5078288;28;28553;-86
2022/04/14 02:40:38;;;;;;;;;18.67;18.67;;;;;-147.47;100.00;64613.53;5079445;28;28452;-85
2022/04/14 02:43:05;;;;;;;;;25.33;21.67;;;;;-147.47;100.00;64613.53;5052378;28;28593;-79
2022/04/14 02:45:31;;;;;;;;;22.67;18.33;;;;;-147.47;100.00;64613.53;5061924;28;28998;-78
2022/04/14 02:47:56;;;;;;;;;21.00;17.67;;;;;-147.47;100.00;64613.53;5041660;28;28553;-78
2022/04/14 02:50:22;;;;;;;;;17.00;16.00;;;;;-147.47;100.00;64613.53;5055838;28;29441;-83
2022/04/14 02:52:48;;;;;;;;;19.50;17.00;;;;;-147.47;100.00;64613.53;5065337;28;29359;-84
2022/04/14 02:55:22;;;;;;;;;15.00;13.33;;;;;-147.47;100.00;64613.53;5053830;28;28520;-80
2022/04/14 02:57:49;;;;;;;;;20.33;17.67;;;;;-147.47;100.00;64613.53;5050696;28;28964;-78
2022/04/14 03:00:17;;;;;;;;;17.00;15.33;;;;;-147.47;100.00;64613.53;5060358;28;28588;-84
2022/04/14 03:02:50;;;;;;;;;22.67;19.67;;;;;-147.47;100.00;64613.53;5075216;28;28415;-85
2022/04/14 03:05:19;;;;;;;;;26.00;19.33;;;;;-147.47;100.00;64613.53;5076280;28;28667;-85
2022/04/14 03:07:45;;;;;;;;;20.33;17.00;;;;;-147.47;100.00;64613.53;5075627;28;28453;-84
2022/04/14 03:10:13;;;;;;;;;24.33;21.33;;;;;-147.47;100.00;64613.53;5077103;28;28661;-86
2022/04/14 03:12:49;;;;;;;;;22.67;20.33;;;;;-147.47;100.00;64613.53;5044449;28;28504;-84
2022/04/14 03:15:16;;;;;;;;;21.00;18.33;;;;;-147.47;100.00;64613.53;5063509;28;28478;-84
2022/04/14 03:17:42;;;;;;;;;26.33;23.33;;;;;-147.47;100.00;64613.53;5066205;28;28485;-84
2022/04/14 03:20:09;;;;;;;;;28.67;24.67;;;;;-147.47;100.00;64613.53;5059336;28;29694;-84
2022/04/14 03:22:35;;;;;;;;;24.67;24.00;;;;;-147.47;100.00;64613.53;5056252;28;28545;-83
2022/04/14 03:25:06;;;;;;;;;27.00;24.00;;;;;-147.47;100.00;64613.53;5053835;28;28566;-84
2022/04/14 03:27:33;;;;;;;;;23.67;23.67;;;;;-147.47;100.00;64613.53;5054874;28;28669;-83
2022/04/14 03:29:59;;;;;;;;;25.00;24.33;;;;;-147.47;100.00;64613.53;5055323;28;30567;-84
2022/04/14 03:32:29;;;;;;;;;31.33;26.00;;;;;-147.47;100.00;64613.53;5056329;28;28814;-84
2022/04/14 03:35:02;;;;;;;;;32.00;25.67;;;;;-147.47;100.00;64613.53;5053974;28;28545;-83
2022/04/14 03:37:27;;;;;;;;;28.67;25.00;;;;;-147.47;100.00;64613.53;5076977;28;28499;-84
2022/04/14 03:39:53;;;;;;;;;24.33;23.00;;;;;-147.47;100.00;64613.53;5075384;28;29424;-86
2022/04/14 03:42:22;;;;;;;;;25.33;23.33;;;;;-147.47;100.00;64613.53;5060038;28;28414;-85
2022/04/14 03:45:24;;;;;;;;;32.00;24.33;;;;;-147.47;100.00;64613.53;5071551;28;28686;-85
2022/04/14 03:48:01;;;;;;;;;28.67;25.00;;;;;-147.47;100.00;64613.53;5085985;28;28854;-86
2022/04/14 03:50:36;;;;;;;;;30.00;26.33;;;;;-147.47;100.00;64613.53;5078391;28;28409;-83
2022/04/14 03:53:05;;;;;;;;;33.00;29.00;;;;;-147.47;100.00;64613.53;5094038;28;28453;-84
2022/04/14 03:55:31;;;;;;;;;31.67;25.33;;;;;-147.47;100.00;64613.53;5077561;28;28563;-85
2022/04/14 03:57:57;;;;;;;;;30.67;24.67;;;;;-147.47;100.00;64613.53;5074775;28;29469;-84
2022/04/14 04:00:33;;;;;;;;;27.00;22.67;;;;;-147.47;100.00;64613.53;5067251;28;30071;-85
2022/04/14 04:03:02;;;;;;;;;33.33;28.00;;;;;-147.47;100.00;64613.53;5043810;28;28486;-84
2022/04/14 04:05:44;;;;;;;;;31.67;28.00;;;;;-147.47;100.00;64613.53;5054508;28;28764;-85
2022/04/14 04:08:30;;;;;;;;;24.00;24.00;;;;;-147.47;100.00;64613.53;5049788;28;29282;-85
2022/04/14 04:11:42;;;;;;;;;31.00;22.67;;;;;-147.47;100.00;64613.53;5074064;28;28830;-83
2022/04/14 04:14:11;;;;;;;;;30.00;28.00;;;;;-147.47;100.00;64613.53;5064383;28;28604;-84
2022/04/14 04:16:49;;;;;;;;;26.67;23.67;;;;;-147.47;100.00;64613.53;5052683;28;28848;-84
2022/04/14 04:19:24;;;;;;;;;25.67;24.00;;;;;-147.47;100.00;64613.53;5052323;28;28543;-83
2022/04/14 04:21:59;;;;;;;;;28.00;23.67;;;;;-147.47;100.00;64613.53;5071757;28;29186;-84
2022/04/14 04:24:25;;;;;;;;;13.33;11.67;;;;;-147.47;100.00;64613.53;5071911;28;28567;-83
2022/04/14 04:26:52;;;;;;;;;27.00;21.67;;;;;-147.47;100.00;64613.53;5049632;28;28489;-84
2022/04/14 04:29:24;;;;;;;;;25.33;24.33;;;;;-147.47;100.00;64613.53;5053350;28;28724;-84
2022/04/14 04:35:42;;;;;;;;;37.67;30.33;;;;;-147.47;100.00;64613.53;5014029;28;28597;-85
2022/04/14 04:39:08;;;;;;;;;;;;;;;;;;;;;
2022/04/14 04:41:37;;;;;;;;;37.00;31.67;;;;;-147.47;100.00;64613.53;5013080;28;57049;-84
2022/04/14 04:44:06;;;;;;;;;31.33;27.67;;;;;-147.47;100.00;64613.53;5042594;28;28582;-84
2022/04/14 04:46:32;;;;;;;;;36.67;32.33;;;;;-147.47;100.00;64613.53;5057633;28;28550;-86
2022/04/14 04:48:57;;;;;;;;;29.33;26.33;;;;;-147.47;100.00;64613.53;5073657;28;28102;-83
2022/04/14 04:51:24;;;;;;;;;32.67;27.33;;;;;-147.47;100.00;64613.53;5075547;28;27958;-84
2022/04/14 04:53:50;;;;;;;;;29.67;26.33;;;;;-147.47;100.00;64613.53;5068901;28;28561;-84
2022/04/14 04:56:18;;;;;;;;;34.33;28.00;;;;;-147.47;100.00;64613.53;5073806;28;28852;-85
2022/04/14 04:58:44;;;;;;;;;33.67;29.67;;;;;-147.47;100.00;64613.53;5058991;28;27927;-86
2022/04/14 05:01:10;;;;;;;;;30.33;27.67;;;;;-147.47;100.00;64613.53;5074901;28;28244;-83
2022/04/14 05:03:35;;;;;;;;;26.33;26.33;;;;;-147.47;100.00;64613.53;5054098;28;30027;-84
2022/04/14 05:06:01;;;;;;;;;35.33;30.33;;;;;-147.47;100.00;64613.53;5042015;28;28580;-83
2022/04/14 05:08:27;;;;;;;;;28.33;25.67;;;;;-147.47;100.00;64613.53;5053691;28;28537;-85
2022/04/14 05:10:52;;;;;;;;;27.33;27.33;;;;;-147.47;100.00;64613.53;5050068;28;29240;-86
2022/04/14 05:13:18;;;;;;;;;28.33;25.33;;;;;-147.47;100.00;64613.53;5054324;28;30559;-86
2022/04/14 05:15:43;;;;;;;;;30.67;25.00;;;;;-147.47;100.00;64613.53;5083158;28;28310;-86
2022/04/14 05:18:10;;;;;;;;;27.67;23.00;;;;;-147.47;100.00;64613.53;5065401;28;27967;-86
2022/04/14 05:20:42;;;;;;;;;34.33;28.33;;;;;-147.47;100.00;64613.53;5058995;28;29197;-85
2022/04/14 05:23:13;;;;;;;;;28.33;26.67;;;;;-147.47;100.00;64613.53;5059242;28;30088;-83
2022/04/14 05:25:41;;;;;;;;;25.00;21.67;;;;;-147.47;100.00;64613.53;5059861;28;28609;-83
2022/04/14 05:28:10;;;;;;;;;23.33;21.67;;;;;-147.47;100.00;64613.53;5049908;28;29147;-84
2022/04/14 05:30:40;;;;;;;;;25.33;25.33;;;;;-147.47;100.00;64613.53;5051998;28;28608;-84
2022/04/14 05:33:10;;;;;;;;;27.00;22.00;;;;;-147.47;100.00;64613.53;5071490;28;28616;-83
2022/04/14 05:35:39;;;;;;;;;25.67;23.00;;;;;-147.47;100.00;64613.53;5054670;28;28869;-85
2022/04/14 05:38:05;;;;;;;;;29.00;27.00;;;;;-147.47;100.00;64613.53;5054894;28;28820;-85
2022/04/14 05:40:31;;;;;;;;;23.33;21.33;;;;;-147.47;100.00;64613.53;5067556;28;29626;-84
2022/04/14 05:42:57;;;;;;;;;27.33;23.67;;;;;-147.47;100.00;64613.53;5053849;28;30497;-85
2022/04/14 05:45:22;;;;;;;;;23.00;22.00;;;;;-147.47;100.00;64613.53;5077544;28;28446;-84
2022/04/14 05:47:51;;;;;;;;;22.67;22.67;;;;;-147.47;100.00;64613.53;5074266;28;28685;-85
2022/04/14 05:50:22;;;;;;;;;22.67;18.67;;;;;-147.47;100.00;64613.53;5053173;28;30549;-85
2022/04/14 05:52:50;;;;;;;;;26.33;19.67;;;;;-147.47;100.00;64613.53;5041216;28;29884;-88
2022/04/14 05:55:16;;;;;;;;;27.00;24.00;;;;;-147.47;100.00;64613.53;5051617;28;28569;-83
2022/04/14 05:57:41;;;;;;;;;23.33;20.33;;;;;-147.47;100.00;64613.53;5033131;28;28417;-83
2022/04/14 06:00:08;;;;;;;;;24.00;22.33;;;;;-147.47;100.00;64613.53;5072250;28;28490;-84
2022/04/14 06:02:34;;;;;;;;;24.00;20.00;;;;;-147.47;100.00;64613.53;5057095;28;31029;-85
2022/04/14 06:05:03;;;;;;;;;16.33;14.00;;;;;-147.47;100.00;64613.53;5390438;22;28884;-81
2022/04/14 06:07:28;;;;;;;;;20.00;18.67;;;;;-147.47;100.00;64613.53;5065190;28;28715;-81
2022/04/14 06:09:54;;;;;;;;;23.33;22.33;;;;;-147.47;100.00;64613.53;5064643;28;28587;-84
2022/04/14 06:12:19;;;;;;;;;25.00;23.67;;;;;-147.47;100.00;64613.53;5043298;28;30039;-83
2022/04/14 06:14:46;;;;;;;;;32.33;25.33;;;;;-147.47;100.00;64613.53;5069936;28;28966;-85
2022/04/14 06:17:12;;;;;;;;;25.33;22.33;;;;;-147.47;100.00;64613.53;5071755;28;29036;-86
2022/04/14 06:19:38;;;;;;;;;25.00;22.67;;;;;-147.47;100.00;64613.53;5079946;28;28800;-85
2022/04/14 06:22:04;;;;;;;;;26.67;23.33;;;;;-147.47;100.00;64613.53;5062687;28;28987;-84
2022/04/14 06:24:29;;;;;;;;;19.50;19.50;;;;;-147.47;100.00;64613.53;5063851;28;29499;-83
2022/04/14 06:26:55;;;;;;;;;22.33;21.00;;;;;-147.47;100.00;64613.53;5060871;28;28582;-85
2022/04/14 06:29:21;;;;;;;;;25.33;22.33;;;;;-147.47;100.00;64613.53;5065005;28;28590;-87
2022/04/14 06:31:47;;;;;;;;;27.00;25.67;;;;;-147.47;100.00;64613.53;5064212;28;29604;-85
2022/04/14 06:34:12;;;;;;;;;26.33;25.00;;;;;-147.47;100.00;64613.53;5076148;28;29017;-83
2022/04/14 06:36:38;;;;;;;;;35.33;31.00;;;;;-147.47;100.00;64613.53;5060197;28;28713;-78
2022/04/14 06:39:04;;;;;;;;;29.67;25.00;;;;;-147.47;100.00;64613.53;5061642;28;29460;-80
2022/04/14 06:41:29;;;;;;;;;28.00;28.00;;;;;-147.47;100.00;64613.53;5071547;28;29449;-78
2022/04/14 06:43:57;;;;;;;;;35.00;27.00;;;;;-147.47;100.00;64613.53;5069907;28;29087;-82
2022/04/14 06:46:23;;;;;;;;;27.00;24.33;;;;;-147.47;100.00;64613.53;5064568;28;29036;-78
2022/04/14 06:49:19;;;;;;;;;;;;;;;;;;;;;
2022/04/14 06:51:48;;;;;;;;;28.67;25.67;;;;;-147.47;100.00;64613.53;5073303;28;56594;-85
2022/04/14 06:54:13;;;;;;;;;26.67;25.33;;;;;-147.47;100.00;64613.53;5070424;28;28562;-76
2022/04/14 06:56:42;;;;;;;;;25.00;25.00;;;;;-147.47;100.00;64613.53;5060459;28;28871;-77
2022/04/14 06:59:08;;;;;;;;;29.67;26.00;;;;;-147.47;100.00;64613.53;5054828;28;28194;-78
2022/04/14 07:01:33;;;;;;;;;22.33;21.67;;;;;-147.47;100.00;64613.53;5059909;28;29833;-77
2022/04/14 07:03:59;;;;;;;;;22.33;21.00;;;;;-147.47;100.00;64613.53;5060117;28;29411;-76
2022/04/14 07:06:27;;;;;;;;;27.67;26.67;;;;;-147.47;100.00;64613.53;5034002;28;28911;-82
2022/04/14 07:08:52;;;;;;;;;24.00;22.67;;;;;-147.47;100.00;64613.53;5027293;28;28790;-81
2022/04/14 07:11:18;;;;;;;;;25.67;21.67;;;;;-147.47;100.00;64613.53;5025721;28;28562;-82
2022/04/14 07:13:44;;;;;;;;;31.33;23.67;;;;;-147.47;100.00;64613.53;5018969;28;28874;-82
2022/04/14 07:16:10;;;;;;;;;29.33;26.67;;;;;-147.47;100.00;64613.53;5028597;28;28825;-85
2022/04/14 07:18:36;;;;;;;;;24.67;22.67;;;;;-147.47;100.00;64613.53;5040226;28;29310;-79
2022/04/14 07:21:01;;;;;;;;;32.67;27.33;;;;;-147.47;100.00;64613.53;5025904;28;29692;-78
2022/04/14 07:23:27;;;;;;;;;26.33;22.67;;;;;-147.47;100.00;64613.53;5008283;28;28644;-77
2022/04/14 07:25:53;;;;;;;;;25.00;23.67;;;;;-147.47;100.00;64613.53;5028773;28;28700;-79
2022/04/14 07:28:18;;;;;;;;;24.00;22.67;;;;;-147.47;100.00;64613.53;5006721;28;28800;-78
2022/04/14 07:30:44;;;;;;;;;15.67;14.33;;;;;-147.47;100.00;64613.53;5023597;28;28664;-86
2022/04/14 07:33:09;;;;;;;;;25.00;21.67;;;;;-147.47;100.00;64613.53;5029456;28;28510;-77
2022/04/14 07:35:35;;;;;;;;;24.67;22.33;;;;;-147.47;100.00;64613.53;5016930;28;28504;-85
2022/04/14 07:38:02;;;;;;;;;27.67;24.67;;;;;-147.47;100.00;64613.53;5023439;28;29505;-88
2022/04/14 07:40:32;;;;;;;;;22.67;22.67;;;;;-147.47;100.00;64613.53;4993832;28;30226;-85
2022/04/14 07:42:58;;;;;;;;;23.00;21.67;;;;;-147.47;100.00;64613.53;5015175;28;28668;-85
2022/04/14 07:45:23;;;;;;;;;24.67;23.00;;;;;-147.47;100.00;64613.53;5025861;28;28882;-78
2022/04/14 07:47:49;;;;;;;;;24.67;22.67;;;;;-147.47;100.00;64613.53;5028062;28;28608;-86
2022/04/14 07:50:19;;;;;;;;;26.67;23.00;;;;;-147.47;100.00;64613.53;5032401;28;29325;-84
2022/04/14 07:52:51;;;;;;;;;31.67;22.67;;;;;-147.47;100.00;64613.53;5027029;28;28566;-78
2022/04/14 07:55:22;;;;;;;;;19.67;18.67;;;;;-147.47;100.00;64613.53;5049414;28;28745;-77
2022/04/14 07:57:48;;;;;;;;;30.33;23.67;;;;;-147.47;100.00;64613.53;5034214;28;28747;-78
2022/04/14 08:00:15;;;;;;;;;25.00;23.67;;;;;-147.47;100.00;64613.53;5027776;28;29551;-86
2022/04/14 08:03:07;;;;;;;;;30.33;24.33;;;;;-147.47;100.00;64613.53;5031973;28;28520;-86
2022/04/14 08:05:37;;;;;;;;;18.33;18.33;;;;;-147.47;100.00;64613.53;5030270;28;29079;-85
2022/04/14 08:08:19;;;;;;;;;25.00;20.00;;;;;-147.47;100.00;64613.53;5074590;28;28668;-86
2022/04/14 08:10:48;;;;;;;;;27.00;21.00;;;;;-147.47;100.00;64613.53;5063929;28;28675;-88
2022/04/14 08:13:14;;;;;;;;;23.33;19.00;;;;;-147.47;100.00;64613.53;5073824;28;28543;-84
2022/04/14 08:15:40;;;;;;;;;19.00;17.33;;;;;-147.47;100.00;64613.53;5073196;28;29041;-78
2022/04/14 08:18:07;;;;;;;;;23.00;20.67;;;;;-147.47;100.00;64613.53;5069461;28;28587;-89
2022/04/14 08:20:36;;;;;;;;;21.33;21.33;;;;;-147.47;100.00;64613.53;5071251;28;29248;-86
2022/04/14 08:23:03;;;;;;;;;20.00;15.33;;;;;-147.47;100.00;64613.53;5063411;28;28760;-79
2022/04/14 08:25:35;;;;;;;;;19.67;18.67;;;;;-147.47;100.00;64613.53;5048247;28;29034;-79
2022/04/14 08:28:03;;;;;;;;;16.67;16.67;;;;;-147.47;100.00;64613.53;5040421;28;30161;-79
2022/04/14 08:30:31;;;;;;;;;16.33;12.33;;;;;-147.47;100.00;64613.53;5061844;28;28813;-85
2022/04/14 08:33:07;;;;;;;;;16.67;15.00;;;;;-147.47;100.00;64613.53;5045486;28;29452;-85
2022/04/14 08:35:33;;;;;;;;;18.33;15.00;;;;;-147.47;100.00;64613.53;5059391;28;28588;-86
2022/04/14 08:38:01;;;;;;;;;21.33;18.33;;;;;-147.47;100.00;64613.53;5066202;28;28653;-84
2022/04/14 08:40:33;;;;;;;;;20.67;18.33;;;;;-147.47;100.00;64613.53;5059655;28;28453;-85
2022/04/14 08:43:04;;;;;;;;;21.67;20.33;;;;;-147.47;100.00;64613.53;5068987;28;28830;-77
2022/04/14 08:45:32;;;;;;;;;17.67;16.00;;;;;-147.47;100.00;64613.53;5066168;28;28910;-76
2022/04/14 08:48:03;;;;;;;;;18.67;17.67;;;;;-147.47;100.00;64613.53;5069227;28;28618;-84
2022/04/14 08:50:30;;;;;;;;;16.67;16.67;;;;;-147.47;100.00;64613.53;5072437;28;28465;-85
2022/04/14 08:52:57;;;;;;;;;18.25;15.50;;;;;-147.47;100.00;64613.53;5070179;28;28795;-76
2022/04/14 08:55:24;;;;;;;;;19.67;19.00;;;;;-147.47;100.00;64613.53;5065893;28;28653;-78
2022/04/14 08:57:50;;;;;;;;;20.00;15.67;;;;;-147.47;100.00;64613.53;5067726;28;28454;-84
2022/04/14 09:00:17;;;;;;;;;14.33;13.00;;;;;-147.47;100.00;64613.53;5053778;28;29653;-85
2022/04/14 09:02:45;;;;;;;;;16.25;16.25;;;;;-147.47;100.00;64613.53;5072076;28;28403;-87
2022/04/14 09:05:13;;;;;;;;;17.75;15.75;;;;;-147.47;100.00;64613.53;5062387;28;28644;-78
2022/04/14 09:07:39;;;;;;;;;13.40;12.60;;;;;-147.47;100.00;64613.53;5067429;28;28582;-83
2022/04/14 09:10:06;;;;;;;;;14.25;11.75;;;;;-147.47;100.00;64613.53;5050077;28;28856;-77
2022/04/14 09:12:35;;;;;;;;;16.50;13.00;;;;;-147.47;100.00;64613.53;5067081;28;28877;-78
2022/04/14 09:15:01;;;;;;;;;11.25;10.25;;;;;-147.47;100.00;64613.53;5066863;28;29052;-77
2022/04/14 09:17:27;;;;;;;;;11.80;11.60;;;;;-147.47;100.00;64613.53;5037684;28;32672;-78
2022/04/14 09:19:53;;;;;;;;;10.00;8.40;;;;;-147.47;100.00;64613.53;5059404;28;41053;-80
2022/04/14 09:22:20;;;;;;;;;13.75;11.75;;;;;-147.47;100.00;64613.53;5054797;28;44375;-85
2022/04/14 09:24:53;;;;;;;;;25.00;24.00;;;;;-147.47;100.00;64613.53;5055454;28;44831;-84
2022/04/14 09:27:44;;;;;;;;;10.00;10.00;;;;;-147.47;100.00;64613.53;5048475;28;45819;-79
2022/04/14 09:30:18;;;;;;;;;10.25;8.75;;;;;-147.47;100.00;64613.53;5061275;28;47850;-80
2022/04/14 09:32:44;;;;;;;;;7.75;7.50;;;;;-147.47;100.00;64613.53;5013155;28;45701;-79
2022/04/14 09:35:18;;;;;;;;;13.00;10.00;;;;;-147.47;100.00;64613.53;5040664;28;45974;-79
2022/04/14 09:37:44;;;;;;;;;11.00;10.75;;;;;-147.47;100.00;64613.53;5045289;28;45794;-80
2022/04/14 09:40:12;;;;;;;;;10.50;10.50;;;;;-147.47;100.00;64613.53;5031299;28;46214;-87
2022/04/14 09:42:40;;;;;;;;;14.25;12.25;;;;;-147.47;100.00;64613.53;5049072;28;45422;-86
2022/04/14 09:45:25;;;;;;;;;9.75;8.75;;;;;-147.47;100.00;64613.53;5034711;28;45660;-84
2022/04/14 09:47:53;;;;;;;;;12.75;10.75;;;;;-147.47;100.00;64613.53;5053019;28;45706;-84
2022/04/14 09:50:31;;;;;;;;;12.00;12.00;;;;;-147.47;100.00;64613.53;5036316;28;46116;-86
2022/04/14 09:53:06;;;;;;;;;9.75;8.75;;;;;-147.47;100.00;64613.53;5037343;28;45641;-86
2022/04/14 09:55:40;;;;;;;;;9.75;8.00;;;;;-147.47;100.00;64613.53;5053168;28;45496;-80
2022/04/14 09:58:19;;;;;;;;;9.25;9.25;;;;;-147.47;100.00;64613.53;5052524;28;45744;-85
2022/04/14 10:00:47;;;;;;;;;10.00;8.25;;;;;-147.47;100.00;64613.53;5054143;28;45540;-84
2022/04/14 10:03:18;;;;;;;;;11.33;11.33;;;;;-147.47;100.00;64613.53;5051466;28;45789;-83
2022/04/14 10:05:45;;;;;;;;;10.75;10.00;;;;;-147.47;100.00;64613.53;5032990;28;45353;-80
2022/04/14 10:08:23;;;;;;;;;23.67;21.00;;;;;-147.47;100.00;64613.53;5037040;28;45769;-80
2022/04/14 10:11:02;;;;;;;;;12.33;11.00;;;;;-147.47;100.00;64613.53;5038472;28;47975;-84
2022/04/14 10:13:50;;;;;;;;;9.25;9.25;;;;;-147.47;100.00;64613.53;5035705;28;45425;-81
2022/04/14 10:16:33;;;;;;;;;11.00;11.00;;;;;-147.47;100.00;64613.53;5035362;28;45655;-82
2022/04/14 10:19:00;;;;;;;;;8.75;8.75;;;;;-147.47;100.00;64613.53;5044744;28;45628;-82
2022/04/14 10:21:27;;;;;;;;;10.25;8.50;;;;;-147.47;100.00;64613.53;5049510;28;46275;-82
2022/04/14 10:23:56;;;;;;;;;7.50;6.25;;;;;-147.47;100.00;64613.53;5031511;28;45661;-84
2022/04/14 10:26:26;;;;;;;;;11.33;9.33;;;;;-147.47;100.00;64613.53;5051826;28;45818;-80
2022/04/14 10:32:12;;;;;;;;;8.75;7.00;;;;;-147.47;100.00;64613.53;5058176;28;45828;-82
2022/04/14 10:34:38;;;;;;;;;7.33;7.33;;;;;-147.47;100.00;64613.53;5049328;28;45888;-83
2022/04/14 10:37:10;;;;;;;;;7.00;7.00;;;;;-147.47;100.00;64613.53;5048151;28;45447;-81
2022/04/14 10:39:58;;;;;;;;;5.75;5.75;;;;;-147.47;100.00;64613.53;5056435;28;45441;-82
2022/04/14 10:42:27;;;;;;;;;7.25;6.25;;;;;-147.47;100.00;64613.53;5047973;28;45897;-81
2022/04/14 10:44:54;;;;;;;;;4.25;4.25;;;;;-147.47;100.00;64613.53;5049718;28;45365;-81
2022/04/14 10:47:53;;;;;;;;;3.25;1.75;;;;;-147.47;100.00;64613.53;5049784;28;45852;-80
2022/04/14 10:50:31;;;;;;;;;7.00;7.00;;;;;-147.47;100.00;64613.53;5053083;28;45922;-79
2022/04/14 10:53:09;;;;;;;;;9.50;8.25;;;;;-147.47;100.00;64613.53;5054316;28;45251;-80
2022/04/14 10:55:42;;;;;;;;;3.50;3.50;;;;;-147.47;100.00;64613.53;5050762;28;45473;-81
2022/04/14 10:58:54;;;;;;;;;6.25;4.00;;;;;-147.47;100.00;64613.53;5050129;28;45722;-80
2022/04/14 11:01:45;;;;;;;;;4.75;4.75;;;;;-147.47;100.00;64613.53;5043950;28;46029;-81
2022/04/14 11:05:09;;;;;;;;;6.00;6.00;;;;;-147.47;100.00;64613.53;5049265;28;45595;-79
2022/04/14 11:07:37;;;;;;;;;9.25;6.25;;;;;-147.47;100.00;64613.53;5003008;28;45992;-82
2022/04/14 11:10:13;;;;;;;;;6.00;6.00;;;;;-147.47;100.00;64613.53;5011653;28;45952;-83
2022/04/14 11:12:41;;;;;;;;;5.00;5.00;;;;;-147.47;100.00;64613.53;5009224;28;47040;-80
2022/04/14 11:15:12;;;;;;;;;3.75;3.25;;;;;-147.47;100.00;64613.53;5012012;28;47203;-83
2022/04/14 11:17:51;;;;;;;;;5.50;5.50;;;;;-147.47;100.00;64613.53;5009680;28;45543;-79
2022/04/14 11:20:20;;;;;;;;;4.50;3.50;;;;;-147.47;100.00;64613.53;5010578;28;45822;-85
2022/04/14 11:23:03;;;;;;;;;4.25;4.25;;;;;-147.47;100.00;64613.53;5013980;28;45536;-85
2022/04/14 11:25:41;;;;;;;;;5.75;4.25;;;;;-147.47;100.00;64613.53;5013137;28;45411;-84
2022/04/14 11:28:26;;;;;;;;;3.25;3.25;;;;;-147.47;100.00;64613.53;5009761;28;45579;-83